createdAt,value
2023-02-12T00:01:54.340Z,3.90
2023-02-12T00:04:42.960Z,4.27
2023-02-12T00:07:33.788Z,2.73
2023-02-12T00:10:22.820Z,3.00
2023-02-12T00:13:11.641Z,4.17
2023-02-12T00:16:00.353Z,3.23
2023-02-12T00:18:52.258Z,2.57
2023-02-12T00:21:40.835Z,3.13
2023-02-12T00:24:30.969Z,4.40
2023-02-12T00:27:19.707Z,2.87
2023-02-12T00:30:09.325Z,2.57
2023-02-12T00:32:57.959Z,4.20
2023-02-12T00:35:46.645Z,3.80
2023-02-12T00:38:35.433Z,2.97
2023-02-12T00:41:27.926Z,4.30
2023-02-12T00:44:17.055Z,4.40
2023-02-12T00:47:05.820Z,2.23
2023-02-12T00:49:54.884Z,3.03
2023-02-12T00:52:43.463Z,3.37
2023-02-12T00:55:33.280Z,2.93
2023-02-12T00:58:23.544Z,3.73
2023-02-12T01:01:12.300Z,4.10
2023-02-12T01:04:01.181Z,3.00
2023-02-12T01:06:50.077Z,4.57
2023-02-12T01:09:38.676Z,6.37
2023-02-12T01:12:28.043Z,3.90
2023-02-12T01:15:19.699Z,3.27
2023-02-12T01:18:08.804Z,3.10
2023-02-12T01:20:59.016Z,2.47
2023-02-12T01:23:48.446Z,3.13
2023-02-12T01:26:37.629Z,1.40
2023-02-12T01:29:27.167Z,3.80
2023-02-12T01:32:17.499Z,2.33
2023-02-12T01:35:07.048Z,3.70
2023-02-12T01:37:58.327Z,2.70
2023-02-12T01:40:47.823Z,4.97
2023-02-12T01:43:37.310Z,3.00
2023-02-12T01:46:26.208Z,3.37
2023-02-12T01:49:19.686Z,2.87
2023-02-12T01:52:11.729Z,1.43
2023-02-12T01:55:03.737Z,7.40
2023-02-12T01:57:52.769Z,2.63
2023-02-12T02:00:41.400Z,2.47
2023-02-12T02:03:30.312Z,3.60
2023-02-12T02:06:25.849Z,1.53
2023-02-12T02:09:15.249Z,2.63
2023-02-12T02:12:21.724Z,3.03
2023-02-12T02:15:10.997Z,2.53
2023-02-12T02:18:03.656Z,3.53
2023-02-12T02:21:27.608Z,2.13
2023-02-12T02:24:54.181Z,2.47
2023-02-12T02:27:51.059Z,2.17
2023-02-12T02:30:46.303Z,1.93
2023-02-12T02:33:41.107Z,2.17
2023-02-12T02:36:50.802Z,1.87
2023-02-12T02:39:52.715Z,3.73
2023-02-12T02:42:46.042Z,2.47
2023-02-12T02:45:39.479Z,1.23
2023-02-12T02:48:36.932Z,1.87
2023-02-12T02:51:30.716Z,1.90
2023-02-12T02:54:24.420Z,1.97
2023-02-12T02:57:16.977Z,3.30
2023-02-12T03:00:13.133Z,1.63
2023-02-12T03:03:06.928Z,1.63
2023-02-12T03:06:02.215Z,2.27
2023-02-12T03:08:55.388Z,2.47
2023-02-12T03:11:44.098Z,1.83
2023-02-12T03:14:36.176Z,1.67
2023-02-12T03:17:29.200Z,2.30
2023-02-12T03:20:20.892Z,1.43
2023-02-12T03:23:15.338Z,1.53
2023-02-12T03:26:09.397Z,1.50
2023-02-12T03:28:58.165Z,2.03
2023-02-12T03:31:57.677Z,3.33
2023-02-12T03:34:51.858Z,4.00
2023-02-12T03:37:44.962Z,2.30
2023-02-12T03:40:39.632Z,1.30
2023-02-12T03:43:32.251Z,1.80
2023-02-12T03:46:25.294Z,1.63
2023-02-12T03:49:23.079Z,2.50
2023-02-12T03:52:11.856Z,1.43
2023-02-12T03:55:01.059Z,1.30
2023-02-12T03:57:58.992Z,2.37
2023-02-12T04:00:47.882Z,3.90
2023-02-12T04:03:36.574Z,1.93
2023-02-12T04:06:27.482Z,3.57
2023-02-12T04:09:17.302Z,2.37
2023-02-12T04:12:34.871Z,1.63
2023-02-12T04:15:45.136Z,1.73
2023-02-12T04:18:42.099Z,1.17
2023-02-12T04:21:44.885Z,1.00
2023-02-12T04:24:39.605Z,1.63
2023-02-12T04:27:36.567Z,3.70
2023-02-12T04:30:30.489Z,1.90
2023-02-12T04:33:24.099Z,1.10
2023-02-12T04:36:18.167Z,1.80
2023-02-12T04:39:11.549Z,3.27
2023-02-12T04:42:01.119Z,2.03
2023-02-12T04:44:49.854Z,2.20
2023-02-12T04:47:38.600Z,1.43
2023-02-12T04:50:39.978Z,2.50
2023-02-12T04:53:28.658Z,2.17
2023-02-12T04:56:17.900Z,4.53
2023-02-12T04:59:06.960Z,3.13
2023-02-12T05:01:55.697Z,2.63
2023-02-12T05:04:44.329Z,1.40
2023-02-12T05:07:34.627Z,2.20
2023-02-12T05:10:23.523Z,1.17
2023-02-12T05:13:12.601Z,2.60
2023-02-12T05:16:01.255Z,4.13
2023-02-12T05:18:50.715Z,4.93
2023-02-12T05:21:39.920Z,6.17
2023-02-12T05:24:30.084Z,3.23
2023-02-12T05:27:20.322Z,2.13
2023-02-12T05:30:10.723Z,2.60
2023-02-12T05:32:59.524Z,3.40
2023-02-12T05:35:48.582Z,4.60
2023-02-12T05:38:37.568Z,1.70
2023-02-12T05:41:28.823Z,3.03
2023-02-12T05:44:17.842Z,2.53
2023-02-12T05:47:10.543Z,1.70
2023-02-12T05:49:59.275Z,2.40
2023-02-12T05:52:47.883Z,2.47
2023-02-12T05:55:36.551Z,2.33
2023-02-12T05:58:26.627Z,2.27
2023-02-12T06:01:18.416Z,2.30
2023-02-12T06:04:10.414Z,2.83
2023-02-12T06:06:59.485Z,4.00
2023-02-12T06:09:48.220Z,2.03
2023-02-12T06:12:36.898Z,2.53
2023-02-12T06:15:26.910Z,2.33
2023-02-12T06:18:15.556Z,2.77
2023-02-12T06:21:04.979Z,2.43
2023-02-12T06:23:54.721Z,4.03
2023-02-12T06:26:44.025Z,3.17
2023-02-12T06:29:32.597Z,2.80
2023-02-12T06:32:22.855Z,2.30
2023-02-12T06:35:11.560Z,2.10
2023-02-12T06:38:00.147Z,1.90
2023-02-12T06:40:48.916Z,2.80
2023-02-12T06:43:37.915Z,2.10
2023-02-12T06:46:27.021Z,2.60
2023-02-12T06:49:17.021Z,5.07
2023-02-12T06:52:05.846Z,2.27
2023-02-12T06:54:54.650Z,2.80
2023-02-12T06:57:43.369Z,2.37
2023-02-12T07:00:32.228Z,3.30
2023-02-12T07:03:21.045Z,3.07
2023-02-12T07:06:11.586Z,2.80
2023-02-12T07:09:00.343Z,2.93
2023-02-12T07:11:49.101Z,1.87
2023-02-12T07:14:38.148Z,2.43
2023-02-12T07:17:26.887Z,3.40
2023-02-12T07:20:15.950Z,2.50
2023-02-12T07:23:06.025Z,2.90
2023-02-12T07:25:58.025Z,1.93
2023-02-12T07:28:46.832Z,2.23
2023-02-12T07:31:35.811Z,4.17
2023-02-12T07:34:24.571Z,2.60
2023-02-12T07:37:14.428Z,3.27
2023-02-12T07:40:04.804Z,5.27
2023-02-12T07:42:56.542Z,3.50
2023-02-12T07:45:45.227Z,3.03
2023-02-12T07:48:34.122Z,2.47
2023-02-12T07:51:23.176Z,3.53
2023-02-12T07:54:12.988Z,1.77
2023-02-12T07:57:03.103Z,4.07
2023-02-12T07:59:51.674Z,3.53
2023-02-12T08:02:40.885Z,3.50
2023-02-12T08:05:30.009Z,2.53
2023-02-12T08:08:18.742Z,2.30
2023-02-12T08:11:08.679Z,3.03
2023-02-12T08:13:59.399Z,3.97
2023-02-12T08:16:50.058Z,2.67
2023-02-12T08:19:39.205Z,2.97
2023-02-12T08:22:27.885Z,2.90
2023-02-12T08:25:16.792Z,2.17
2023-02-12T08:28:06.239Z,2.77
2023-02-12T08:31:02.043Z,3.07
2023-02-12T08:33:52.429Z,3.53
2023-02-12T08:36:41.940Z,4.23
2023-02-12T08:39:32.397Z,2.27
2023-02-12T08:42:21.122Z,7.07
2023-02-12T08:45:10.941Z,4.40
2023-02-12T08:48:01.065Z,15.07
2023-02-12T08:50:49.833Z,3.10
2023-02-12T08:53:39.729Z,2.20
2023-02-12T08:56:30.063Z,2.83
2023-02-12T08:59:19.575Z,2.67
2023-02-12T09:02:10.057Z,4.83
2023-02-12T09:05:00.467Z,3.73
2023-02-12T09:07:49.930Z,4.10
2023-02-12T09:10:40.963Z,3.47
2023-02-12T09:13:29.856Z,5.23
2023-02-12T09:16:18.555Z,7.90
2023-02-12T09:19:07.309Z,4.83
2023-02-12T09:21:57.776Z,4.87
2023-02-12T09:24:46.780Z,5.17
2023-02-12T09:27:35.423Z,5.80
2023-02-12T09:30:24.816Z,5.10
2023-02-12T09:33:14.051Z,6.60
2023-02-12T09:36:04.546Z,5.43
2023-02-12T09:38:54.976Z,5.80
2023-02-12T09:42:16.866Z,6.17
2023-02-12T09:45:12.082Z,6.97
2023-02-12T09:48:07.218Z,6.87
2023-02-12T09:50:58.823Z,4.83
2023-02-12T09:53:49.541Z,8.00
2023-02-12T09:56:42.203Z,5.90
2023-02-12T09:59:35.161Z,5.83
2023-02-12T10:02:25.808Z,8.03
2023-02-12T10:05:19.920Z,9.17
2023-02-12T10:08:29.521Z,6.67
2023-02-12T10:11:40.150Z,9.70
2023-02-12T10:14:51.884Z,8.37
2023-02-12T10:17:45.317Z,6.20
2023-02-12T10:20:59.098Z,6.20
2023-02-12T10:24:07.044Z,8.13
2023-02-12T10:26:59.764Z,7.33
2023-02-12T10:29:50.923Z,9.50
2023-02-12T10:32:40.477Z,7.60
2023-02-12T10:35:29.971Z,6.57
2023-02-12T10:38:22.747Z,6.53
2023-02-12T10:41:14.100Z,7.90
2023-02-12T10:44:06.498Z,6.83
2023-02-12T10:46:57.070Z,7.73
2023-02-12T10:49:46.164Z,10.73
2023-02-12T10:52:43.275Z,23.33
2023-02-12T10:55:33.415Z,7.80
2023-02-12T10:58:25.095Z,5.30
2023-02-12T11:01:22.014Z,6.73
2023-02-12T11:04:26.428Z,5.13
2023-02-12T11:07:15.137Z,7.90
2023-02-12T11:10:03.945Z,7.83
2023-02-12T11:12:52.789Z,8.03
2023-02-12T11:15:49.337Z,8.47
2023-02-12T11:18:38.787Z,6.43
2023-02-12T11:21:28.954Z,7.00
2023-02-12T11:24:32.090Z,10.43
2023-02-12T11:27:28.791Z,7.90
2023-02-12T11:30:21.220Z,7.27
2023-02-12T11:33:18.224Z,7.77
2023-02-12T11:36:14.777Z,8.77
2023-02-12T11:39:07.875Z,5.40
2023-02-12T11:41:59.446Z,7.20
2023-02-12T11:44:52.237Z,5.73
2023-02-12T11:47:42.355Z,6.57
2023-02-12T11:50:33.816Z,7.20
2023-02-12T11:53:26.513Z,7.50
2023-02-12T11:56:16.921Z,9.93
2023-02-12T11:59:19.206Z,7.87
2023-02-12T12:02:19.810Z,7.93
2023-02-12T12:05:16.268Z,7.70
2023-02-12T12:08:11.892Z,8.00
2023-02-12T12:11:08.225Z,7.77
2023-02-12T12:14:07.027Z,7.23
2023-02-12T12:17:19.353Z,6.47
2023-02-12T12:20:16.974Z,6.73
2023-02-12T12:23:11.373Z,7.20
2023-02-12T12:26:05.688Z,6.93
2023-02-12T12:29:02.692Z,6.90
2023-02-12T12:31:57.659Z,7.77
2023-02-12T12:34:46.714Z,6.93
2023-02-12T12:37:41.689Z,8.40
2023-02-12T12:40:53.916Z,8.40
2023-02-12T12:43:51.225Z,7.03
2023-02-12T12:46:55.017Z,7.93
2023-02-12T12:50:00.300Z,7.13
2023-02-12T12:53:10.122Z,9.27
2023-02-12T12:56:25.463Z,14.03
2023-02-12T12:59:29.970Z,7.33
2023-02-12T13:02:57.461Z,8.47
2023-02-12T13:06:29.065Z,8.93
2023-02-12T13:09:52.951Z,9.53
2023-02-12T13:12:57.321Z,11.57
2023-02-12T13:15:55.947Z,10.40
2023-02-12T13:18:57.864Z,11.43
2023-02-12T13:21:54.126Z,10.50
2023-02-12T13:24:48.743Z,9.17
2023-02-12T13:27:42.618Z,8.83
2023-02-12T13:30:38.010Z,8.63
2023-02-12T13:33:29.851Z,7.43
2023-02-12T13:36:20.094Z,7.73
2023-02-12T13:39:16.446Z,8.80
2023-02-12T13:42:17.469Z,7.43
2023-02-12T13:45:22.274Z,7.97
2023-02-12T13:48:35.166Z,9.87
2023-02-12T13:51:35.673Z,15.33
2023-02-12T13:54:38.436Z,9.47
2023-02-12T13:57:27.073Z,8.33
2023-02-12T14:00:49.114Z,9.03
2023-02-12T14:03:39.282Z,8.23
2023-02-12T14:06:32.336Z,8.57
2023-02-12T14:09:27.175Z,7.53
2023-02-12T14:12:19.033Z,9.53
2023-02-12T14:15:10.584Z,8.83
2023-02-12T14:18:21.080Z,10.73
2023-02-12T14:21:44.587Z,10.33
2023-02-12T14:24:52.665Z,10.07
2023-02-12T14:27:46.596Z,18.77
2023-02-12T14:30:39.145Z,8.73
2023-02-12T14:33:28.923Z,11.07
2023-02-12T14:36:20.263Z,9.27
2023-02-12T14:39:30.344Z,9.20
2023-02-12T14:42:44.946Z,10.27
2023-02-12T14:45:35.778Z,11.17
2023-02-12T14:48:46.684Z,9.30
2023-02-12T14:51:42.197Z,10.80
2023-02-12T14:54:36.072Z,9.80
2023-02-12T14:57:28.815Z,10.50
2023-02-12T15:00:25.028Z,10.43
2023-02-12T15:03:22.909Z,9.67
2023-02-12T15:06:17.615Z,9.57
2023-02-12T15:09:11.558Z,8.83
2023-02-12T15:12:07.972Z,11.80
2023-02-12T15:15:07.115Z,10.47
2023-02-12T15:18:00.437Z,11.60
2023-02-12T15:20:55.873Z,13.93
2023-02-12T15:23:46.633Z,12.10
2023-02-12T15:26:40.583Z,11.53
2023-02-12T15:29:35.366Z,12.33
2023-02-12T15:32:26.662Z,12.33
2023-02-12T15:35:26.170Z,11.83
2023-02-12T15:38:22.530Z,15.23
2023-02-12T15:41:26.215Z,20.53
2023-02-12T15:44:24.618Z,15.70
2023-02-12T15:47:17.239Z,16.87
2023-02-12T15:50:07.007Z,13.90
2023-02-12T15:52:56.711Z,14.37
2023-02-12T15:55:47.747Z,14.03
2023-02-12T15:58:43.286Z,15.37
2023-02-12T16:01:35.251Z,15.17
2023-02-12T16:04:28.006Z,18.67
2023-02-12T16:07:17.795Z,17.00
2023-02-12T16:10:07.963Z,16.33
2023-02-12T16:12:56.811Z,18.70
2023-02-12T16:15:45.666Z,17.33
2023-02-12T16:18:34.443Z,19.77
2023-02-12T16:21:25.423Z,22.40
2023-02-12T16:24:26.694Z,19.17
2023-02-12T16:27:21.267Z,21.27
2023-02-12T16:30:31.498Z,18.40
2023-02-12T16:33:35.137Z,19.10
2023-02-12T16:36:33.552Z,21.87
2023-02-12T16:40:03.273Z,19.97
2023-02-12T16:43:19.799Z,18.60
2023-02-12T16:46:09.586Z,21.03
2023-02-12T16:49:00.837Z,20.03
2023-02-12T16:51:52.161Z,19.17
2023-02-12T16:54:41.104Z,22.13
2023-02-12T16:57:29.918Z,18.37
2023-02-12T17:00:19.126Z,19.73
2023-02-12T17:03:08.031Z,21.50
2023-02-12T17:05:57.381Z,21.03
2023-02-12T17:08:47.852Z,21.60
2023-02-12T17:11:36.515Z,25.83
2023-02-12T17:14:25.269Z,26.63
2023-02-12T17:17:14.014Z,24.13
2023-02-12T17:20:02.711Z,30.60
2023-02-12T17:22:54.438Z,29.00
2023-02-12T17:25:45.255Z,28.67
2023-02-12T17:28:34.248Z,27.00
2023-02-12T17:31:24.418Z,28.13
2023-02-12T17:34:13.346Z,26.17
2023-02-12T17:37:02.304Z,23.37
2023-02-12T17:39:51.159Z,29.83
2023-02-12T17:42:41.851Z,27.53
2023-02-12T17:45:31.196Z,28.10
2023-02-12T17:48:22.929Z,26.63
2023-02-12T17:51:13.423Z,26.17
2023-02-12T17:54:02.325Z,23.23
2023-02-12T17:56:51.121Z,24.90
2023-02-12T17:59:41.427Z,23.87
2023-02-12T18:02:30.228Z,19.80
2023-02-12T18:05:19.358Z,24.37
2023-02-12T18:08:08.421Z,24.30
2023-02-12T18:10:57.694Z,23.13
2023-02-12T18:13:47.204Z,20.23
2023-02-12T18:16:37.509Z,21.53
2023-02-12T18:19:27.036Z,17.97
2023-02-12T18:22:15.983Z,22.53
2023-02-12T18:25:05.077Z,20.60
2023-02-12T18:27:53.919Z,23.07
2023-02-12T18:30:43.394Z,24.00
2023-02-12T18:33:34.499Z,21.47
2023-02-12T18:36:24.286Z,22.63
2023-02-12T18:39:13.187Z,26.03
2023-02-12T18:42:02.168Z,27.93
2023-02-12T18:44:52.612Z,23.87
2023-02-12T18:47:42.152Z,26.57
2023-02-12T18:50:32.402Z,24.10
2023-02-12T18:53:21.174Z,23.23
2023-02-12T18:56:12.019Z,27.23
2023-02-12T18:59:02.864Z,28.73
2023-02-12T19:01:56.169Z,27.40
2023-02-12T19:04:44.956Z,26.50
2023-02-12T19:07:35.649Z,27.07
2023-02-12T19:10:24.402Z,28.60
2023-02-12T19:13:13.393Z,27.83
2023-02-12T19:16:07.712Z,35.93
2023-02-12T19:19:00.151Z,29.90
2023-02-12T19:21:49.013Z,26.63
2023-02-12T19:24:46.705Z,28.40
2023-02-12T19:27:35.781Z,32.57
2023-02-12T19:30:25.108Z,24.77
2023-02-12T19:33:13.821Z,28.10
2023-02-12T19:36:02.555Z,27.90
2023-02-12T19:38:51.288Z,31.50
2023-02-12T19:41:41.789Z,28.67
2023-02-12T19:44:30.642Z,29.70
2023-02-12T19:47:19.503Z,27.00
2023-02-12T19:50:09.943Z,31.03
2023-02-12T19:52:58.870Z,32.57
2023-02-12T19:55:47.730Z,27.50
2023-02-12T19:58:38.826Z,29.87
2023-02-12T20:01:29.124Z,30.40
2023-02-12T20:04:20.484Z,29.13
2023-02-12T20:07:09.414Z,29.30
2023-02-12T20:09:58.627Z,26.77
2023-02-12T20:12:50.686Z,33.67
2023-02-12T20:15:41.270Z,33.00
2023-02-12T20:18:33.998Z,31.43
2023-02-12T20:21:25.789Z,31.07
2023-02-12T20:24:14.512Z,35.20
2023-02-12T20:27:04.233Z,30.90
2023-02-12T20:29:53.168Z,34.90
2023-02-12T20:32:44.697Z,28.73
2023-02-12T20:35:34.809Z,28.23
2023-02-12T20:38:23.612Z,32.00
2023-02-12T20:41:12.844Z,30.33
2023-02-12T20:44:02.264Z,30.87
2023-02-12T20:47:09.103Z,34.80
2023-02-12T20:50:01.368Z,29.87
2023-02-12T20:52:50.783Z,34.23
2023-02-12T20:55:39.673Z,32.47
2023-02-12T20:58:29.346Z,33.97
2023-02-12T21:01:21.191Z,41.33
2023-02-12T21:04:12.191Z,36.57
2023-02-12T21:07:02.570Z,34.10
2023-02-12T21:09:51.492Z,32.57
2023-02-12T21:12:40.479Z,37.03
2023-02-12T21:15:29.618Z,36.27
2023-02-12T21:18:22.823Z,33.43
2023-02-12T21:21:14.094Z,31.00
2023-02-12T21:24:06.804Z,28.10
2023-02-12T21:26:56.628Z,33.13
2023-02-12T21:29:45.945Z,32.63
2023-02-12T21:32:34.764Z,39.00
2023-02-12T21:35:23.744Z,38.27
2023-02-12T21:38:12.601Z,33.60
2023-02-12T21:41:09.884Z,36.13
2023-02-12T21:44:00.742Z,34.27
2023-02-12T21:46:49.771Z,37.07
2023-02-12T21:49:38.691Z,37.27
2023-02-12T21:52:27.492Z,42.23
2023-02-12T21:55:16.883Z,37.13
2023-02-12T21:58:07.222Z,32.80
2023-02-12T22:00:56.365Z,34.90
2023-02-12T22:03:45.575Z,37.73
2023-02-12T22:06:37.685Z,38.33
2023-02-12T22:09:26.440Z,38.13
2023-02-12T22:12:15.493Z,40.07
2023-02-12T22:15:06.353Z,33.33
2023-02-12T22:17:55.038Z,38.83
2023-02-12T22:20:43.839Z,40.63
2023-02-12T22:23:33.206Z,42.70
2023-02-12T22:26:24.008Z,40.70
2023-02-12T22:29:14.738Z,43.40
2023-02-12T22:32:05.525Z,42.57
2023-02-12T22:34:54.509Z,42.30
2023-02-12T22:37:43.426Z,42.67
2023-02-12T22:40:32.203Z,43.43
2023-02-12T22:43:21.035Z,39.63
2023-02-12T22:46:12.201Z,42.17
2023-02-12T22:49:02.370Z,46.87
2023-02-12T22:51:51.130Z,44.20
2023-02-12T22:54:40.532Z,44.77
2023-02-12T22:57:29.419Z,45.80
2023-02-12T23:00:19.540Z,40.90
2023-02-12T23:03:08.393Z,43.73
2023-02-12T23:06:02.155Z,45.10
2023-02-12T23:08:51.983Z,48.13
2023-02-12T23:11:41.302Z,43.70
2023-02-12T23:14:30.042Z,39.17
2023-02-12T23:17:18.833Z,40.63
2023-02-12T23:20:08.434Z,42.87
2023-02-12T23:22:58.962Z,41.13
2023-02-12T23:25:48.620Z,45.60
2023-02-12T23:28:37.370Z,44.33
2023-02-12T23:31:26.663Z,40.27
2023-02-12T23:34:15.478Z,41.57
2023-02-12T23:37:04.348Z,37.60
2023-02-12T23:39:54.646Z,44.87
2023-02-12T23:42:43.857Z,38.03
2023-02-12T23:45:32.657Z,39.30
2023-02-12T23:48:21.386Z,37.70
2023-02-12T23:51:10.288Z,39.03
2023-02-12T23:53:59.310Z,41.37
2023-02-12T23:56:49.403Z,39.37
2023-02-12T23:59:38.166Z,38.30
